createdAt,value
2019-06-26T05:01:03.791Z,10.63
2019-06-26T05:03:33.036Z,13.43
2019-06-26T05:06:02.292Z,10.87
2019-06-26T05:08:59.729Z,13.77
2019-06-26T05:11:29.051Z,12.37
2019-06-26T05:13:58.315Z,11.63
2019-06-26T05:16:56.652Z,16.43
2019-06-26T05:19:26.110Z,21.33
2019-06-26T05:21:57.644Z,14.90
2019-06-26T05:24:27.295Z,11.27
2019-06-26T05:29:57.374Z,14.90
2019-06-26T05:36:23.210Z,13.97
2019-06-26T05:39:31.034Z,12.77
2019-06-26T05:42:00.197Z,11.70
2019-06-26T05:45:02.962Z,17.20
2019-06-26T05:47:32.483Z,12.17
2019-06-26T05:50:39.753Z,13.20
2019-06-26T05:53:09.281Z,10.57
2019-06-26T05:55:38.719Z,10.13
2019-06-26T05:58:56.664Z,9.30
2019-06-26T06:01:26.189Z,12.67
2019-06-26T06:03:55.490Z,13.73
2019-06-26T06:09:27.454Z,13.63
2019-06-26T06:11:56.766Z,12.37
2019-06-26T06:14:25.933Z,12.63
2019-06-26T06:16:55.257Z,12.33
2019-06-26T06:19:24.751Z,8.97
2019-06-26T06:21:53.974Z,10.17
2019-06-26T06:24:23.213Z,11.03
2019-06-26T06:26:52.719Z,10.97
2019-06-26T06:29:21.917Z,10.23
2019-06-26T06:31:51.161Z,11.57
2019-06-26T06:34:20.283Z,9.40
2019-06-26T06:36:49.366Z,11.87
2019-06-26T06:39:18.375Z,11.07
2019-06-26T06:41:47.685Z,10.10
2019-06-26T06:44:17.835Z,11.70
2019-06-26T06:47:02.620Z,7.27
2019-06-26T06:49:18.335Z,9.63
2019-06-26T06:51:47.543Z,8.93
2019-06-26T06:54:17.511Z,9.57
2019-06-26T06:56:46.759Z,11.60
2019-06-26T06:59:15.979Z,6.70
2019-06-26T07:01:46.782Z,7.47
2019-06-26T07:04:15.997Z,6.43
2019-06-26T07:06:45.122Z,7.47
2019-06-26T07:09:16.076Z,7.80
2019-06-26T07:11:46.956Z,7.00
2019-06-26T07:14:16.082Z,6.97
2019-06-26T07:16:45.376Z,7.03
2019-06-26T07:19:14.430Z,7.50
2019-06-26T07:21:43.600Z,6.47
2019-06-26T07:24:17.545Z,5.30
2019-06-26T07:26:46.854Z,6.53
2019-06-26T07:29:20.267Z,8.37
2019-06-26T07:31:50.504Z,6.77
2019-06-26T07:34:19.705Z,5.27
2019-06-26T07:36:48.857Z,6.83
2019-06-26T07:39:17.980Z,5.30
2019-06-26T07:42:06.395Z,5.03
2019-06-26T07:44:35.550Z,6.03
2019-06-26T07:47:12.749Z,4.53
2019-06-26T07:49:35.444Z,6.20
2019-06-26T07:52:04.669Z,4.63
2019-06-26T07:54:33.851Z,5.00
2019-06-26T07:57:04.483Z,5.43
2019-06-26T07:59:33.760Z,7.67
2019-06-26T08:02:02.857Z,6.97
2019-06-26T08:04:31.987Z,4.17
2019-06-26T08:07:01.164Z,6.93
2019-06-26T08:09:30.274Z,6.27
2019-06-26T08:12:01.350Z,3.93
2019-06-26T08:14:30.493Z,4.87
2019-06-26T08:16:59.509Z,5.13
2019-06-26T08:19:28.606Z,6.30
2019-06-26T08:21:57.751Z,4.20
2019-06-26T08:24:31.609Z,4.37
2019-06-26T08:27:05.606Z,5.57
2019-06-26T08:29:34.934Z,3.97
2019-06-26T08:32:04.212Z,5.23
2019-06-26T08:34:33.297Z,4.93
2019-06-26T08:37:02.718Z,4.73
2019-06-26T08:39:31.835Z,4.50
2019-06-26T08:42:01.226Z,7.23
2019-06-26T08:44:52.402Z,5.73
2019-06-26T08:47:21.564Z,5.27
2019-06-26T08:49:50.856Z,6.80
2019-06-26T08:52:20.417Z,5.77
2019-06-26T08:54:49.592Z,3.57
2019-06-26T08:57:18.856Z,5.90
2019-06-26T08:59:53.643Z,4.17
2019-06-26T09:02:22.669Z,3.83
2019-06-26T09:04:51.785Z,4.60
2019-06-26T09:07:21.767Z,6.00
2019-06-26T09:09:55.336Z,3.97
2019-06-26T09:12:24.729Z,3.53
2019-06-26T09:14:53.797Z,4.03
2019-06-26T09:17:23.024Z,5.17
2019-06-26T09:19:53.181Z,7.57
2019-06-26T09:22:26.627Z,4.07
2019-06-26T09:24:55.779Z,6.93
2019-06-26T09:27:26.177Z,3.90
2019-06-26T09:29:56.007Z,6.57
2019-06-26T09:32:26.952Z,4.90
2019-06-26T09:34:55.982Z,6.10
2019-06-26T09:37:25.080Z,6.70
2019-06-26T09:39:54.255Z,6.07
2019-06-26T09:42:23.599Z,7.80
2019-06-26T09:44:52.705Z,4.97
2019-06-26T09:47:21.925Z,5.37
2019-06-26T09:49:51.170Z,6.33
2019-06-26T09:52:20.718Z,4.33
2019-06-26T09:54:49.882Z,4.50
2019-06-26T09:57:19.551Z,5.57
2019-06-26T09:59:48.656Z,6.17
2019-06-26T10:02:18.509Z,5.70
2019-06-26T10:04:48.997Z,4.60
2019-06-26T10:07:18.777Z,5.40
2019-06-26T10:09:48.290Z,7.80
2019-06-26T10:12:21.644Z,7.47
2019-06-26T10:14:51.086Z,5.67
2019-06-26T10:17:20.636Z,3.70
2019-06-26T10:19:54.226Z,5.97
2019-06-26T10:22:44.016Z,3.97
2019-06-26T10:25:13.716Z,4.27
2019-06-26T10:27:43.083Z,3.80
2019-06-26T10:30:13.244Z,6.70
2019-06-26T10:32:42.639Z,5.13
2019-06-26T10:35:12.060Z,4.93
2019-06-26T10:37:41.242Z,6.80
2019-06-26T10:40:10.892Z,10.60
2019-06-26T10:42:40.175Z,7.57
2019-06-26T10:45:09.717Z,4.60
2019-06-26T10:47:39.948Z,7.63
2019-06-26T10:50:09.454Z,4.07
2019-06-26T10:53:24.173Z,10.80
2019-06-26T10:55:53.243Z,4.17
2019-06-26T10:58:22.521Z,5.73
2019-06-26T11:01:12.663Z,4.37
2019-06-26T11:03:42.069Z,5.60
2019-06-26T11:06:11.749Z,4.43
2019-06-26T11:09:01.371Z,4.27
2019-06-26T11:11:30.728Z,5.53
2019-06-26T11:13:59.899Z,5.90
2019-06-26T11:16:29.137Z,6.70
2019-06-26T11:18:58.489Z,5.37
2019-06-26T11:21:27.745Z,7.47
2019-06-26T11:23:56.864Z,5.30
2019-06-26T11:26:26.033Z,5.70
2019-06-26T11:28:55.299Z,8.23
2019-06-26T11:31:24.478Z,5.73
2019-06-26T11:33:53.684Z,4.77
2019-06-26T11:36:22.866Z,5.97
2019-06-26T11:38:52.384Z,5.57
2019-06-26T11:41:21.647Z,6.70
2019-06-26T11:43:50.773Z,7.70
2019-06-26T11:46:19.806Z,7.70
2019-06-26T11:48:49.124Z,6.37
2019-06-26T11:51:18.212Z,9.63
2019-06-26T11:53:47.487Z,5.10
2019-06-26T11:56:16.504Z,6.30
2019-06-26T11:58:45.713Z,6.73
2019-06-26T12:01:14.873Z,6.33
2019-06-26T12:03:44.086Z,7.33
2019-06-26T12:06:18.932Z,8.13
2019-06-26T12:08:58.183Z,7.33
2019-06-26T12:11:27.543Z,8.93
2019-06-26T12:13:57.449Z,6.87
2019-06-26T12:16:27.308Z,6.93
2019-06-26T12:18:58.062Z,6.67
2019-06-26T12:21:27.377Z,7.57
2019-06-26T12:23:57.035Z,6.50
2019-06-26T12:29:18.573Z,7.20
2019-06-26T12:31:47.934Z,6.47
2019-06-26T12:34:17.334Z,8.97
2019-06-26T12:36:48.683Z,8.10
2019-06-26T12:39:27.653Z,7.23
2019-06-26T12:41:57.863Z,6.67
2019-06-26T12:44:52.743Z,6.57
2019-06-26T12:47:22.069Z,6.53
2019-06-26T12:49:54.409Z,6.23
2019-06-26T12:52:23.645Z,9.43
2019-06-26T12:54:55.577Z,6.20
2019-06-26T12:57:25.063Z,5.87
2019-06-26T12:59:57.614Z,6.40
2019-06-26T13:02:26.793Z,6.10
2019-06-26T13:04:56.225Z,6.37
2019-06-26T13:07:25.430Z,7.13
2019-06-26T13:09:56.523Z,5.35
2019-06-26T13:12:54.070Z,5.70
2019-06-26T13:15:23.456Z,8.40
2019-06-26T13:17:52.967Z,5.23
2019-06-26T13:21:05.028Z,8.07
2019-06-26T13:23:27.700Z,7.33
2019-06-26T13:25:57.152Z,5.33
2019-06-26T13:28:41.700Z,4.60
2019-06-26T13:31:12.081Z,5.00
2019-06-26T13:33:54.219Z,4.93
2019-06-26T13:36:35.835Z,5.90
2019-06-26T13:39:06.043Z,5.57
2019-06-26T13:41:38.073Z,6.80
2019-06-26T13:44:07.427Z,5.50
2019-06-26T13:46:43.795Z,5.27
2019-06-26T13:49:16.404Z,5.20
2019-06-26T13:51:44.300Z,5.87
2019-06-26T13:54:13.555Z,4.13
2019-06-26T13:56:44.383Z,7.17
2019-06-26T13:59:25.607Z,5.50
2019-06-26T14:01:55.009Z,5.13
2019-06-26T14:04:24.296Z,6.37
2019-06-26T14:06:53.920Z,3.70
2019-06-26T14:09:23.341Z,6.57
2019-06-26T14:12:11.515Z,4.67
2019-06-26T14:14:56.158Z,7.73
2019-06-26T14:17:12.024Z,4.00
2019-06-26T14:20:00.419Z,5.70
2019-06-26T14:22:31.796Z,5.00
2019-06-26T14:25:25.753Z,8.73
2019-06-26T14:27:55.051Z,6.17
2019-06-26T14:30:27.657Z,5.77
2019-06-26T14:32:55.269Z,8.33
2019-06-26T14:35:24.746Z,6.23
2019-06-26T14:38:28.091Z,5.83
2019-06-26T14:41:24.070Z,5.67
2019-06-26T14:44:54.932Z,4.43
2019-06-26T14:47:24.296Z,7.40
2019-06-26T14:49:53.567Z,5.13
2019-06-26T14:52:22.844Z,4.57
2019-06-26T14:54:52.065Z,4.57
2019-06-26T14:57:26.119Z,4.53
2019-06-26T15:00:32.435Z,5.07
2019-06-26T15:03:01.658Z,5.57
2019-06-26T15:05:30.913Z,5.30
2019-06-26T15:08:00.256Z,5.50
2019-06-26T15:10:29.489Z,5.00
2019-06-26T15:12:58.774Z,5.10
2019-06-26T15:15:28.070Z,9.53
2019-06-26T15:17:57.326Z,4.87
2019-06-26T15:20:26.631Z,4.97
2019-06-26T15:22:58.739Z,5.50
2019-06-26T15:25:26.679Z,4.00
2019-06-26T15:27:55.957Z,4.10
2019-06-26T15:30:25.418Z,9.13
2019-06-26T15:32:54.728Z,4.97
2019-06-26T15:35:24.132Z,5.23
2019-06-26T15:37:53.393Z,4.60
2019-06-26T15:40:23.222Z,6.63
2019-06-26T15:42:52.341Z,4.93
2019-06-26T15:45:25.529Z,5.60
2019-06-26T15:47:54.695Z,4.77
2019-06-26T15:50:31.450Z,5.63
2019-06-26T15:53:00.811Z,3.80
2019-06-26T15:55:30.115Z,5.03
2019-06-26T15:57:59.602Z,4.47
2019-06-26T16:00:29.834Z,4.40
2019-06-26T16:02:59.206Z,4.80
2019-06-26T16:05:28.498Z,5.17
2019-06-26T16:07:57.685Z,4.77
2019-06-26T16:10:34.416Z,3.90
2019-06-26T16:13:02.722Z,8.40
2019-06-26T16:15:34.426Z,5.83
2019-06-26T16:18:09.027Z,4.30
2019-06-26T16:20:38.238Z,4.40
2019-06-26T16:23:07.406Z,4.10
2019-06-26T16:25:37.062Z,2.57
2019-06-26T16:28:06.385Z,3.90
2019-06-26T16:30:54.758Z,2.70
2019-06-26T16:33:43.519Z,4.30
2019-06-26T16:36:12.902Z,4.10
2019-06-26T16:38:42.049Z,3.63
2019-06-26T16:41:11.274Z,2.40
2019-06-26T16:43:52.069Z,3.27
2019-06-26T16:46:21.312Z,3.03
2019-06-26T16:48:53.426Z,3.63
2019-06-26T16:51:22.586Z,5.67
2019-06-26T16:53:51.853Z,1.80
2019-06-26T16:56:21.079Z,4.17
2019-06-26T16:58:50.144Z,2.20
2019-06-26T17:01:19.345Z,3.53
2019-06-26T17:03:48.435Z,3.77
2019-06-26T17:06:17.622Z,5.27
2019-06-26T17:08:47.298Z,4.73
2019-06-26T17:11:16.423Z,3.05
2019-06-26T17:13:45.750Z,1.93
2019-06-26T17:16:16.007Z,2.10
2019-06-26T17:18:45.391Z,3.93
2019-06-26T17:21:14.689Z,2.20
2019-06-26T17:23:43.944Z,3.63
2019-06-26T17:26:13.029Z,3.50
2019-06-26T17:28:42.418Z,4.17
2019-06-26T17:31:11.913Z,2.10
2019-06-26T17:33:41.234Z,1.43
2019-06-26T17:36:10.427Z,6.10
2019-06-26T17:38:39.548Z,3.67
2019-06-26T17:41:09.054Z,5.90
2019-06-26T17:43:38.080Z,5.13
